Paradise, Montana
Current Conditions -  °F | °C
As of 2:39 AM on Saturday 20 Dec 2014 (Local Time) from KMLP Reporting Station
Broken Clouds Broken Clouds  
Wind Chill: -8°   Ceiling: 1600
Heat Index: -4°   Visibility: 10mi
Dew Point: -6°   Wind: 7mph
Humidity: 88%   Direction: NA
Pressure: 29.91"   Gusts: NA
Location:  47.39°N, 114.8°W
Report Text: KMLP 200939Z AUTO VRB06KT 10SM SCT006 SCT010 BKN016 M04/M06 A2991 RMK AO2 SNE08 P0000 T10391056
Loading
Personal Weather Stations






























Interactive Weather Map New forecast layout! Learn more

10-Day Weather Forecast

Advertisements
Track Severe Weather on mobile